Terminal Aerodrome Forecast
Issued by NWS

Home | Current Version | Previous Version | Graphics & Text | Print | Product List | Glossary On
Versions: 1 2 3 4 5 6 7 8 9 10 11 12 13 14 15 16 17
144
FTUS43 KGRB 052339
TAFATW
TAF
KATW 052339Z 0600/0624 21005KT P6SM BKN100
     FM060500 22005KT 6SM -SN SCT025 BKN050
     FM061300 24008KT P6SM BKN025=

USA.gov is the U.S. government's official web portal to all federal, state and local government web resources and services.